Time;durP1;ratioP1;P1;durP2;ratioP2;P2;SDS_P1;SDS_P2;PMS_P1;PMS_P2;Temp;Humidity;BMP_temperature;BMP_pressure;BME280_temperature;BME280_humidity;BME280_pressure;Samples;Min_cycle;Max_cycle;Signal;HPM_P1;HPM_P2
2023/08/18 00:00:19;;;;;;;2.20;0.90;;;;;;;-145.14;100.00;70583.66;4995250;28;20393;-73
2023/08/18 00:02:44;;;;;;;2.10;0.90;;;;;;;-145.14;100.00;70583.66;4992430;28;20228;-73
2023/08/18 00:05:09;;;;;;;1.90;0.87;;;;;;;-145.14;100.00;70583.66;5003245;28;20240;-73
2023/08/18 00:07:35;;;;;;;2.60;1.17;;;;;;;-145.14;100.00;70583.66;4992000;28;20185;-73
2023/08/18 00:10:02;;;;;;;3.17;0.90;;;;;;;-145.14;100.00;70583.66;5000261;23;20252;-77
2023/08/18 00:12:28;;;;;;;2.93;0.90;;;;;;;-145.14;100.00;70583.66;4992660;28;20262;-77
2023/08/18 00:14:54;;;;;;;1.73;0.80;;;;;;;-145.14;100.00;70583.66;4993028;28;20957;-77
2023/08/18 00:17:19;;;;;;;2.80;0.90;;;;;;;-145.14;100.00;70583.66;4993337;28;20662;-77
2023/08/18 00:19:44;;;;;;;2.00;0.80;;;;;;;-145.14;100.00;70583.66;4993216;28;20209;-77
2023/08/18 00:22:10;;;;;;;2.87;0.90;;;;;;;-145.14;100.00;70583.66;4992886;28;20206;-77
2023/08/18 00:24:36;;;;;;;1.87;0.80;;;;;;;-145.14;100.00;70583.66;4991504;28;20186;-77
2023/08/18 00:27:02;;;;;;;3.40;0.93;;;;;;;-145.14;100.00;70583.66;4993755;28;20447;-78
2023/08/18 00:29:27;;;;;;;1.87;0.93;;;;;;;-145.14;100.00;70583.66;4991587;28;20209;-77
2023/08/18 00:31:53;;;;;;;2.00;0.80;;;;;;;-145.14;100.00;70583.66;4994370;28;20480;-77
2023/08/18 00:34:18;;;;;;;1.73;0.80;;;;;;;-145.14;100.00;70583.66;4995546;28;20185;-77
2023/08/18 00:36:44;;;;;;;1.77;0.80;;;;;;;-145.14;100.00;70583.66;4993818;28;20186;-77
2023/08/18 00:39:09;;;;;;;3.77;1.10;;;;;;;-145.14;100.00;70583.66;4995490;28;20244;-77
2023/08/18 00:41:34;;;;;;;2.00;0.90;;;;;;;-145.14;100.00;70583.66;4993077;28;20647;-76
2023/08/18 00:44:00;;;;;;;2.40;0.77;;;;;;;-145.14;100.00;70583.66;4993945;28;20182;-77
2023/08/18 00:46:27;;;;;;;2.80;0.93;;;;;;;-145.14;100.00;70583.66;4992296;28;20281;-79
2023/08/18 00:48:52;;;;;;;2.47;0.80;;;;;;;-145.14;100.00;70583.66;4993259;28;20256;-79
2023/08/18 00:51:18;;;;;;;2.67;1.00;;;;;;;-145.14;100.00;70583.66;4994939;28;20468;-78
2023/08/18 00:53:44;;;;;;;2.70;1.03;;;;;;;-145.14;100.00;70583.66;4994386;28;20189;-78
2023/08/18 00:56:10;;;;;;;2.63;1.00;;;;;;;-145.14;100.00;70583.66;4992382;28;20186;-79
2023/08/18 00:58:36;;;;;;;2.57;1.00;;;;;;;-145.14;100.00;70583.66;4994255;28;20452;-79
2023/08/18 01:01:02;;;;;;;2.50;1.03;;;;;;;-145.14;100.00;70583.66;4992739;28;20486;-78
2023/08/18 01:03:29;;;;;;;2.40;1.13;;;;;;;-145.14;100.00;70583.66;4992194;28;20475;-78
2023/08/18 01:05:55;;;;;;;2.23;0.90;;;;;;;-145.14;100.00;70583.66;4994666;28;20519;-79
2023/08/18 01:08:20;;;;;;;3.47;1.17;;;;;;;-145.14;100.00;70583.66;4993531;28;20995;-78
2023/08/18 01:10:57;;;;;;;2.73;1.03;;;;;;;-145.14;100.00;70583.66;4991258;28;20354;-79
2023/08/18 01:13:49;;;;;;;3.73;1.10;;;;;;;-145.14;100.00;70583.66;4992300;28;20273;-79
2023/08/18 01:16:21;;;;;;;2.90;1.17;;;;;;;-145.14;100.00;70583.66;4993631;28;20515;-79
2023/08/18 01:18:49;;;;;;;2.10;1.13;;;;;;;-145.14;100.00;70583.66;4991826;28;20447;-79
2023/08/18 01:21:17;;;;;;;2.80;1.10;;;;;;;-145.14;100.00;70583.66;4991435;28;20499;-79
2023/08/18 01:23:43;;;;;;;4.00;1.50;;;;;;;-145.14;100.00;70583.66;4990787;28;20441;-79
2023/08/18 01:26:08;;;;;;;2.17;0.90;;;;;;;-145.14;100.00;70583.66;4991689;28;20439;-79
2023/08/18 01:28:35;;;;;;;2.20;1.10;;;;;;;-145.14;100.00;70583.66;4991985;28;20642;-79
2023/08/18 01:31:04;;;;;;;4.23;1.07;;;;;;;-145.14;100.00;70583.66;4992978;28;20557;-78
2023/08/18 01:33:36;;;;;;;3.20;1.13;;;;;;;-145.14;100.00;70583.66;4991502;28;20495;-79
2023/08/18 01:36:11;;;;;;;2.00;1.00;;;;;;;-145.14;100.00;70583.66;4991403;28;20494;-78
2023/08/18 01:38:38;;;;;;;2.67;1.20;;;;;;;-145.14;100.00;70583.66;4992606;28;20442;-79
2023/08/18 01:41:07;;;;;;;2.23;1.00;;;;;;;-145.14;100.00;70583.66;4991985;28;20523;-79
2023/08/18 01:43:33;;;;;;;3.67;1.20;;;;;;;-145.14;100.00;70583.66;4991094;28;20436;-79
2023/08/18 01:46:01;;;;;;;2.53;1.20;;;;;;;-145.14;100.00;70583.66;4991363;28;21043;-78
2023/08/18 01:48:27;;;;;;;2.10;0.90;;;;;;;-145.14;100.00;70583.66;4992327;28;20189;-78
2023/08/18 01:50:52;;;;;;;1.97;1.00;;;;;;;-145.14;100.00;70583.66;4994364;28;20453;-78
2023/08/18 01:53:18;;;;;;;3.07;0.90;;;;;;;-145.14;100.00;70583.66;4994826;28;20507;-78
2023/08/18 01:55:43;;;;;;;1.93;0.80;;;;;;;-145.14;100.00;70583.66;4993105;28;20206;-78
2023/08/18 01:58:09;;;;;;;2.90;1.10;;;;;;;-145.14;100.00;70583.66;4991270;28;20555;-78
2023/08/18 02:00:34;;;;;;;3.40;0.93;;;;;;;-145.14;100.00;70583.66;4993738;28;20205;-78
2023/08/18 02:02:59;;;;;;;1.90;0.93;;;;;;;-145.14;100.00;70583.66;4991516;28;20650;-78
2023/08/18 02:05:25;;;;;;;3.60;1.10;;;;;;;-145.14;100.00;70583.66;4992245;28;20189;-78
2023/08/18 02:07:50;;;;;;;2.43;0.80;;;;;;;-145.14;100.00;70583.66;4990620;28;20193;-78
2023/08/18 02:10:16;;;;;;;2.97;1.10;;;;;;;-145.14;100.00;70583.66;4990463;28;20213;-78
2023/08/18 02:12:43;;;;;;;2.47;1.03;;;;;;;-145.14;100.00;70583.66;4990286;28;20201;-78
2023/08/18 02:15:09;;;;;;;4.27;1.40;;;;;;;-145.14;100.00;70583.66;4991283;28;20199;-78
2023/08/18 02:17:34;;;;;;;3.13;1.10;;;;;;;-145.14;100.00;70583.66;4992240;28;20515;-78
2023/08/18 02:20:00;;;;;;;5.20;1.20;;;;;;;-145.14;100.00;70583.66;4993329;28;20523;-78
2023/08/18 02:22:26;;;;;;;2.37;1.00;;;;;;;-145.14;100.00;70583.66;4989590;28;20184;-78
2023/08/18 02:24:51;;;;;;;2.80;1.10;;;;;;;-145.14;100.00;70583.66;4993259;28;20185;-78
2023/08/18 02:27:17;;;;;;;2.80;1.40;;;;;;;-145.14;100.00;70583.66;4989384;28;20428;-78
2023/08/18 02:29:43;;;;;;;4.00;1.50;;;;;;;-145.14;100.00;70583.66;4990469;28;21045;-78
2023/08/18 02:32:08;;;;;;;4.10;1.20;;;;;;;-145.14;100.00;70583.66;4992478;28;20205;-78
2023/08/18 02:34:33;;;;;;;2.80;1.03;;;;;;;-145.14;100.00;70583.66;4991618;28;20182;-78
2023/08/18 02:36:59;;;;;;;2.60;1.27;;;;;;;-145.14;100.00;70583.66;4989504;28;20495;-78
2023/08/18 02:39:24;;;;;;;3.00;1.20;;;;;;;-145.14;100.00;70583.66;4990937;28;20197;-79
2023/08/18 02:41:51;;;;;;;4.10;1.37;;;;;;;-145.14;100.00;70583.66;4992818;28;20212;-78
2023/08/18 02:44:17;;;;;;;3.70;1.47;;;;;;;-145.14;100.00;70583.66;4990159;28;20665;-79
2023/08/18 02:46:43;;;;;;;3.17;1.33;;;;;;;-145.14;100.00;70583.66;4990761;28;20459;-79
2023/08/18 02:49:08;;;;;;;2.30;1.17;;;;;;;-145.14;100.00;70583.66;4991366;28;20452;-78
2023/08/18 02:51:34;;;;;;;3.40;1.40;;;;;;;-145.14;100.00;70583.66;4990933;28;20212;-79
2023/08/18 02:53:59;;;;;;;2.90;1.30;;;;;;;-145.14;100.00;70583.66;4991274;28;20623;-78
2023/08/18 02:56:26;;;;;;;2.57;1.30;;;;;;;-145.14;100.00;70583.66;4989049;28;20189;-78
2023/08/18 02:58:51;;;;;;;2.53;1.20;;;;;;;-145.14;100.00;70583.66;4990059;28;20640;-78
2023/08/18 03:01:17;;;;;;;2.80;1.30;;;;;;;-145.14;100.00;70583.66;4988717;28;20508;-78
2023/08/18 03:03:42;;;;;;;2.80;1.50;;;;;;;-145.14;100.00;70583.66;4989488;28;20216;-78
2023/08/18 03:06:08;;;;;;;2.83;1.27;;;;;;;-145.14;100.00;70583.66;4990160;28;20252;-79
2023/08/18 03:08:36;;;;;;;2.93;1.17;;;;;;;-145.14;100.00;70583.66;4991260;28;20260;-79
2023/08/18 03:11:02;;;;;;;3.10;2.50;;;;;;;-145.14;100.00;70583.66;4991574;28;20453;-78
2023/08/18 03:13:28;;;;;;;4.40;1.50;;;;;;;-145.14;100.00;70583.66;4989886;28;20507;-79
2023/08/18 03:15:54;;;;;;;3.20;1.50;;;;;;;-145.14;100.00;70583.66;4992137;28;21091;-78
2023/08/18 03:18:19;;;;;;;4.30;1.20;;;;;;;-145.14;100.00;70583.66;4990729;28;20564;-78
2023/08/18 03:20:48;;;;;;;2.73;1.17;;;;;;;-145.14;100.00;70583.66;4991915;28;20456;-79
2023/08/18 03:23:15;;;;;;;3.70;1.23;;;;;;;-145.14;100.00;70583.66;4990563;28;20178;-78
2023/08/18 03:25:41;;;;;;;3.30;1.27;;;;;;;-145.14;100.00;70583.66;4991656;28;20433;-79
2023/08/18 03:28:07;;;;;;;2.27;1.07;;;;;;;-145.14;100.00;70583.66;4992147;28;20437;-79
2023/08/18 03:30:36;;;;;;;3.63;1.27;;;;;;;-145.14;100.00;70583.66;4995048;28;20216;-78
2023/08/18 03:33:03;;;;;;;4.23;1.33;;;;;;;-145.14;100.00;70583.66;4994643;28;20463;-79
2023/08/18 03:35:31;;;;;;;3.30;1.20;;;;;;;-145.14;100.00;70583.66;4996281;28;20824;-78
2023/08/18 03:37:58;;;;;;;2.50;0.97;;;;;;;-145.14;100.00;70583.66;4995533;28;20432;-78
2023/08/18 03:40:23;;;;;;;3.87;1.30;;;;;;;-145.14;100.00;70583.66;4993999;28;20447;-79
2023/08/18 03:42:48;;;;;;;3.40;1.27;;;;;;;-145.14;100.00;70583.66;4994494;28;20981;-78
2023/08/18 03:45:14;;;;;;;3.13;1.17;;;;;;;-145.14;100.00;70583.66;4991416;28;20192;-78
2023/08/18 03:47:41;;;;;;;2.87;1.40;;;;;;;-145.14;100.00;70583.66;4993645;28;20189;-78
2023/08/18 03:50:07;;;;;;;3.50;1.40;;;;;;;-145.14;100.00;70583.66;4993338;28;20456;-78
2023/08/18 03:52:32;;;;;;;2.07;1.10;;;;;;;-145.14;100.00;70583.66;4993562;28;20477;-78
2023/08/18 03:54:57;;;;;;;2.30;1.03;;;;;;;-145.14;100.00;70583.66;4994428;28;20689;-78
2023/08/18 03:57:23;;;;;;;3.20;1.33;;;;;;;-145.14;100.00;70583.66;4993288;28;20185;-79
2023/08/18 03:59:48;;;;;;;3.50;1.10;;;;;;;-145.14;100.00;70583.66;4995136;28;20210;-79
2023/08/18 04:02:14;;;;;;;2.40;1.20;;;;;;;-145.14;100.00;70583.66;4992597;28;20185;-78
2023/08/18 04:04:39;;;;;;;3.07;1.20;;;;;;;-145.14;100.00;70583.66;4992868;28;20265;-79
2023/08/18 04:07:05;;;;;;;3.90;1.33;;;;;;;-145.14;100.00;70583.66;4991458;28;20631;-78
2023/08/18 04:09:30;;;;;;;5.00;1.53;;;;;;;-145.14;100.00;70583.66;4992091;28;20228;-79
2023/08/18 04:11:55;;;;;;;3.90;1.20;;;;;;;-145.14;100.00;70583.66;4995083;28;20205;-79
2023/08/18 04:14:21;;;;;;;2.93;1.40;;;;;;;-145.14;100.00;70583.66;4994645;28;21381;-79
2023/08/18 04:16:46;;;;;;;6.30;1.47;;;;;;;-145.14;100.00;70583.66;4994303;28;20221;-78
2023/08/18 04:19:12;;;;;;;2.80;1.17;;;;;;;-145.14;100.00;70583.66;4996913;28;20580;-78
2023/08/18 04:21:37;;;;;;;4.30;1.53;;;;;;;-145.14;100.00;70583.66;4993808;28;20273;-78
2023/08/18 04:24:03;;;;;;;3.10;1.73;;;;;;;-145.14;100.00;70583.66;4992756;28;20464;-80
2023/08/18 04:26:29;;;;;;;2.80;1.70;;;;;;;-145.14;100.00;70583.66;5001250;28;20196;-78
2023/08/18 04:28:54;;;;;;;3.00;1.37;;;;;;;-145.14;100.00;70583.66;4992954;28;20547;-78
2023/08/18 04:31:20;;;;;;;3.53;1.30;;;;;;;-145.14;100.00;70583.66;4990764;28;20206;-78
2023/08/18 04:33:45;;;;;;;2.97;1.60;;;;;;;-145.14;100.00;70583.66;4992140;28;20185;-79
2023/08/18 04:36:11;;;;;;;3.80;1.83;;;;;;;-145.14;100.00;70583.66;4992936;28;20194;-79
2023/08/18 04:38:36;;;;;;;3.20;1.57;;;;;;;-145.14;100.00;70583.66;4991324;28;20180;-78
2023/08/18 04:41:02;;;;;;;2.87;1.60;;;;;;;-145.14;100.00;70583.66;4994877;28;20193;-79
2023/08/18 04:43:30;;;;;;;4.83;1.63;;;;;;;-145.14;100.00;70583.66;4994081;28;20190;-78
2023/08/18 04:45:57;;;;;;;4.30;1.80;;;;;;;-145.14;100.00;70583.66;4992901;28;20482;-79
2023/08/18 04:48:23;;;;;;;5.87;1.83;;;;;;;-145.14;100.00;70583.66;4992781;28;20944;-78
2023/08/18 04:50:49;;;;;;;3.37;2.03;;;;;;;-145.14;100.00;70583.66;4992317;28;20820;-79
2023/08/18 04:53:15;;;;;;;5.17;2.30;;;;;;;-145.14;100.00;70583.66;4993059;28;20480;-79
2023/08/18 04:55:41;;;;;;;3.80;1.83;;;;;;;-145.14;100.00;70583.66;4991358;28;20495;-79
2023/08/18 04:58:12;;;;;;;3.60;1.97;;;;;;;-145.14;100.00;70583.66;4992054;28;20424;-79
2023/08/18 05:00:46;;;;;;;4.33;1.80;;;;;;;-145.14;100.00;70583.66;4994533;28;20531;-79
2023/08/18 05:03:11;;;;;;;3.80;1.60;;;;;;;-145.14;100.00;70583.66;4992988;28;20428;-78
2023/08/18 05:06:09;;;;;;;5.67;2.27;;;;;;;-145.14;100.00;70583.66;4993419;28;20448;-79
2023/08/18 05:08:36;;;;;;;4.20;2.20;;;;;;;-145.14;100.00;70583.66;4996036;28;20191;-78
2023/08/18 05:11:06;;;;;;;2.97;1.53;;;;;;;-145.14;100.00;70583.66;4991353;28;20523;-78
2023/08/18 05:13:36;;;;;;;3.43;2.03;;;;;;;-145.14;100.00;70583.66;4992519;28;20536;-79
2023/08/18 05:16:05;;;;;;;4.30;2.00;;;;;;;-145.14;100.00;70583.66;4991959;28;20516;-78
2023/08/18 05:18:31;;;;;;;4.37;2.17;;;;;;;-145.14;100.00;70583.66;4991767;28;20491;-78
2023/08/18 05:21:00;;;;;;;4.90;1.90;;;;;;;-145.14;100.00;70583.66;4991081;28;20468;-79
2023/08/18 05:23:26;;;;;;;5.50;1.80;;;;;;;-145.14;100.00;70583.66;4991745;28;20440;-79
2023/08/18 05:25:54;;;;;;;2.90;1.80;;;;;;;-145.14;100.00;70583.66;4992242;28;20439;-79
2023/08/18 05:28:21;;;;;;;4.27;1.97;;;;;;;-145.14;100.00;70583.66;4990909;28;20455;-78
2023/08/18 05:30:47;;;;;;;4.63;1.97;;;;;;;-145.14;100.00;70583.66;4992830;28;20468;-78
2023/08/18 05:33:13;;;;;;;4.77;2.60;;;;;;;-145.14;100.00;70583.66;4990437;28;20468;-79
2023/08/18 05:35:39;;;;;;;5.03;2.10;;;;;;;-145.14;100.00;70583.66;5002024;28;20952;-79
2023/08/18 05:38:10;;;;;;;4.37;2.53;;;;;;;-145.14;100.00;70583.66;4990443;28;20186;-79
2023/08/18 05:40:42;;;;;;;4.90;2.10;;;;;;;-145.14;100.00;70583.66;4991579;28;20307;-78
2023/08/18 05:43:09;;;;;;;4.77;2.33;;;;;;;-145.14;100.00;70583.66;4990600;28;20433;-79
2023/08/18 05:45:36;;;;;;;4.73;2.37;;;;;;;-145.14;100.00;70583.66;4991317;28;20447;-79
2023/08/18 05:48:02;;;;;;;4.53;2.63;;;;;;;-145.14;100.00;70583.66;4993454;28;20749;-79
2023/08/18 05:50:28;;;;;;;6.80;2.70;;;;;;;-145.14;100.00;70583.66;4994449;28;20940;-79
2023/08/18 05:52:53;;;;;;;5.10;2.50;;;;;;;-145.14;100.00;70583.66;4992138;28;20507;-78
2023/08/18 05:55:19;;;;;;;5.30;2.40;;;;;;;-145.14;100.00;70583.66;4992002;28;20573;-79
2023/08/18 05:57:44;;;;;;;4.07;2.37;;;;;;;-145.14;100.00;70583.66;4994005;28;20181;-78
2023/08/18 06:00:12;;;;;;;6.03;3.13;;;;;;;-145.14;100.00;70583.66;4990432;28;20240;-78
2023/08/18 06:02:38;;;;;;;6.87;3.10;;;;;;;-145.14;100.00;70583.66;4990824;28;20192;-79
2023/08/18 06:05:04;;;;;;;4.20;2.60;;;;;;;-145.14;100.00;70583.66;4992018;28;20787;-78
2023/08/18 06:07:29;;;;;;;6.50;3.10;;;;;;;-145.14;100.00;70583.66;4991089;28;20190;-78
2023/08/18 06:09:55;;;;;;;7.90;3.97;;;;;;;-145.14;100.00;70583.66;4994623;28;20479;-79
2023/08/18 06:12:20;;;;;;;4.43;3.10;;;;;;;-145.14;100.00;70583.66;4990964;28;20658;-79
2023/08/18 06:14:46;;;;;;;4.77;3.00;;;;;;;-145.14;100.00;70583.66;4994004;28;20181;-79
2023/08/18 06:17:11;;;;;;;7.93;3.63;;;;;;;-145.14;100.00;70583.66;4990151;28;20631;-79
2023/08/18 06:19:36;;;;;;;7.00;3.20;;;;;;;-145.14;100.00;70583.66;4991836;28;20200;-79
2023/08/18 06:22:02;;;;;;;4.63;2.77;;;;;;;-145.14;100.00;70583.66;4994190;28;20730;-79
2023/08/18 06:24:28;;;;;;;5.27;3.00;;;;;;;-145.14;100.00;70583.66;4990653;28;20241;-78
2023/08/18 06:26:53;;;;;;;4.87;3.30;;;;;;;-145.14;100.00;70583.66;4991768;28;20433;-79
2023/08/18 06:29:19;;;;;;;5.60;3.50;;;;;;;-145.14;100.00;70583.66;4991192;28;20662;-79
2023/08/18 06:31:45;;;;;;;5.87;2.80;;;;;;;-145.14;100.00;70583.66;4992554;28;20209;-79
2023/08/18 06:34:11;;;;;;;6.23;3.50;;;;;;;-145.14;100.00;70583.66;4989632;28;20459;-79
2023/08/18 06:36:36;;;;;;;5.57;3.50;;;;;;;-145.14;100.00;70583.66;4991336;28;20182;-79
2023/08/18 06:39:02;;;;;;;5.40;3.50;;;;;;;-145.14;100.00;70583.66;4993136;28;20213;-79
2023/08/18 06:41:27;;;;;;;4.87;3.27;;;;;;;-145.14;100.00;70583.66;4989794;28;20193;-78
2023/08/18 06:43:52;;;;;;;5.37;3.63;;;;;;;-145.14;100.00;70583.66;4995469;28;20189;-79
2023/08/18 06:46:18;;;;;;;8.03;4.27;;;;;;;-145.14;100.00;70583.66;4991689;28;20213;-78
2023/08/18 06:48:43;;;;;;;4.13;3.40;;;;;;;-145.14;100.00;70583.66;4991285;28;20196;-79
2023/08/18 06:51:09;;;;;;;4.70;3.07;;;;;;;-145.14;100.00;70583.66;4989727;28;20182;-78
2023/08/18 06:53:34;;;;;;;7.10;4.40;;;;;;;-145.14;100.00;70583.66;4991298;28;20180;-78
2023/08/18 06:56:00;;;;;;;5.07;3.37;;;;;;;-145.14;100.00;70583.66;4992301;28;20197;-79
2023/08/18 06:58:26;;;;;;;7.17;4.50;;;;;;;-145.14;100.00;70583.66;4988385;28;20185;-79
2023/08/18 07:00:52;;;;;;;4.43;3.10;;;;;;;-145.14;100.00;70583.66;4993192;28;20212;-79
2023/08/18 07:03:17;;;;;;;5.80;3.20;;;;;;;-145.14;100.00;70583.66;4994622;28;20205;-78
2023/08/18 07:05:43;;;;;;;5.17;3.50;;;;;;;-145.14;100.00;70583.66;4996684;28;20464;-80
2023/08/18 07:08:09;;;;;;;6.10;3.70;;;;;;;-145.14;100.00;70583.66;4994543;28;20182;-79
2023/08/18 07:10:34;;;;;;;5.93;3.70;;;;;;;-145.14;100.00;70583.66;4995057;28;20352;-79
2023/08/18 07:13:00;;;;;;;6.47;3.40;;;;;;;-145.14;100.00;70583.66;4996302;28;20205;-79
2023/08/18 07:15:25;;;;;;;5.40;3.77;;;;;;;-145.14;100.00;70583.66;4993917;28;20192;-79
2023/08/18 07:17:51;;;;;;;8.60;3.83;;;;;;;-145.14;100.00;70583.66;4994815;28;20186;-78
2023/08/18 07:20:16;;;;;;;5.57;3.83;;;;;;;-145.14;100.00;70583.66;4994348;28;20244;-79
2023/08/18 07:22:41;;;;;;;5.50;3.50;;;;;;;-145.14;100.00;70583.66;4993573;28;20269;-78
2023/08/18 07:25:10;;;;;;;5.80;3.70;;;;;;;-145.14;100.00;70583.66;4996836;28;20714;-78
2023/08/18 07:27:35;;;;;;;4.60;3.03;;;;;;;-145.14;100.00;70583.66;4994658;28;20208;-78
2023/08/18 07:30:01;;;;;;;6.63;4.00;;;;;;;-145.14;100.00;70583.66;4996790;28;20452;-78
2023/08/18 07:32:26;;;;;;;5.03;3.50;;;;;;;-145.14;100.00;70583.66;4999593;28;20256;-78
2023/08/18 07:34:52;;;;;;;6.10;3.57;;;;;;;-145.14;100.00;70583.66;4994899;28;20186;-78
2023/08/18 07:37:17;;;;;;;6.20;3.80;;;;;;;-145.14;100.00;70583.66;4993274;28;20182;-78
2023/08/18 07:39:43;;;;;;;5.20;3.20;;;;;;;-145.14;100.00;70583.66;4993652;28;20577;-78
2023/08/18 07:42:08;;;;;;;6.90;3.60;;;;;;;-145.14;100.00;70583.66;4992666;28;20870;-78
2023/08/18 07:44:34;;;;;;;8.23;3.73;;;;;;;-145.14;100.00;70583.66;4993989;28;20273;-79
2023/08/18 07:46:59;;;;;;;4.67;3.27;;;;;;;-145.14;100.00;70583.66;4993081;28;20697;-78
2023/08/18 07:49:24;;;;;;;5.73;3.27;;;;;;;-145.14;100.00;70583.66;4993781;28;20220;-79
2023/08/18 07:51:50;;;;;;;6.00;2.70;;;;;;;-145.14;100.00;70583.66;4992394;28;20547;-79
2023/08/18 07:54:15;;;;;;;6.93;3.67;;;;;;;-145.14;100.00;70583.66;4993694;28;20669;-78
2023/08/18 07:56:41;;;;;;;5.43;2.80;;;;;;;-145.14;100.00;70583.66;4992945;28;20209;-78
2023/08/18 07:59:06;;;;;;;4.40;3.00;;;;;;;-145.14;100.00;70583.66;4992848;28;20209;-79
2023/08/18 08:01:32;;;;;;;5.10;2.93;;;;;;;-145.14;100.00;70583.66;4994762;28;20646;-79
2023/08/18 08:03:59;;;;;;;6.13;3.43;;;;;;;-145.14;100.00;70583.66;4992735;28;20284;-79
2023/08/18 08:06:25;;;;;;;4.80;2.70;;;;;;;-145.14;100.00;70583.66;4993708;28;20196;-79
2023/08/18 08:08:50;;;;;;;4.23;2.43;;;;;;;-145.14;100.00;70583.66;4991250;28;20468;-79
2023/08/18 08:11:15;;;;;;;5.33;2.97;;;;;;;-145.14;100.00;70583.66;4996134;28;20196;-79
2023/08/18 08:13:41;;;;;;;4.97;3.20;;;;;;;-145.14;100.00;70583.66;4992771;28;20173;-79
2023/08/18 08:16:07;;;;;;;6.53;3.03;;;;;;;-145.14;100.00;70583.66;4996376;28;20235;-79
2023/08/18 08:18:33;;;;;;;4.40;2.67;;;;;;;-145.14;100.00;70583.66;4993661;28;20647;-79
2023/08/18 08:21:00;;;;;;;4.40;3.03;;;;;;;-145.14;100.00;70583.66;4992361;28;20433;-79
2023/08/18 08:23:26;;;;;;;4.60;2.10;;;;;;;-145.14;100.00;70583.66;4991826;28;20482;-79
2023/08/18 08:25:51;;;;;;;5.83;2.77;;;;;;;-145.14;100.00;70583.66;4992952;28;20433;-79
2023/08/18 08:28:17;;;;;;;6.40;2.60;;;;;;;-145.14;100.00;70583.66;4995187;28;20433;-78
2023/08/18 08:30:44;;;;;;;4.67;2.90;;;;;;;-145.14;100.00;70583.66;4991931;28;20252;-78
2023/08/18 08:33:13;;;;;;;4.43;2.83;;;;;;;-145.14;100.00;70583.66;4992385;28;20213;-79
2023/08/18 08:35:39;;;;;;;4.73;2.90;;;;;;;-145.14;100.00;70583.66;4991654;28;20912;-79
2023/08/18 08:38:04;;;;;;;6.00;3.00;;;;;;;-145.14;100.00;70583.66;4992274;28;20511;-79
2023/08/18 08:40:30;;;;;;;3.30;2.37;;;;;;;-145.14;100.00;70583.66;4993334;28;20736;-79
2023/08/18 08:42:56;;;;;;;4.60;2.40;;;;;;;-145.14;100.00;70583.66;4991919;28;20325;-78
2023/08/18 08:45:23;;;;;;;3.70;2.33;;;;;;;-145.14;100.00;70583.66;4994934;28;20236;-84
2023/08/18 08:47:50;;;;;;;3.50;2.10;;;;;;;-145.14;100.00;70583.66;4994347;28;20320;-79
2023/08/18 08:50:17;;;;;;;5.60;2.87;;;;;;;-145.14;100.00;70583.66;4994490;28;20487;-79
2023/08/18 08:52:47;;;;;;;3.63;2.20;;;;;;;-145.14;100.00;70583.66;4991933;28;20464;-79
2023/08/18 08:55:15;;;;;;;4.87;2.43;;;;;;;-145.14;100.00;70583.66;4992043;28;20436;-77
2023/08/18 08:57:41;;;;;;;5.43;2.10;;;;;;;-145.14;100.00;70583.66;4993446;28;20440;-76
2023/08/18 09:00:09;;;;;;;4.20;1.70;;;;;;;-145.14;100.00;70583.66;4990361;28;20961;-78
2023/08/18 09:02:35;;;;;;;3.30;2.10;;;;;;;-145.14;100.00;70583.66;5002885;28;20197;-79
2023/08/18 09:05:00;;;;;;;3.57;1.57;;;;;;;-145.14;100.00;70583.66;4992754;28;20432;-78
2023/08/18 09:07:28;;;;;;;5.43;2.00;;;;;;;-145.14;100.00;70583.66;4990277;28;21035;-80
2023/08/18 09:09:53;;;;;;;3.10;1.53;;;;;;;-145.14;100.00;70583.66;4991238;28;20584;-79
2023/08/18 09:12:25;;;;;;;4.20;1.90;;;;;;;-145.14;100.00;70583.66;4990772;28;20468;-79
2023/08/18 09:14:52;;;;;;;9.07;1.97;;;;;;;-145.14;100.00;70583.66;4992929;28;20580;-79
2023/08/18 09:17:19;;;;;;;3.97;1.77;;;;;;;-145.14;100.00;70583.66;4988449;28;20534;-78
2023/08/18 09:19:44;;;;;;;3.53;2.00;;;;;;;-145.14;100.00;70583.66;4991434;28;20472;-79
2023/08/18 09:22:11;;;;;;;4.17;1.53;;;;;;;-145.14;100.00;70583.66;4992700;28;20445;-79
2023/08/18 09:24:36;;;;;;;3.80;1.30;;;;;;;-145.14;100.00;70583.66;4991047;28;20178;-79
2023/08/18 09:27:09;;;;;;;3.23;1.57;;;;;;;-145.14;100.00;70583.66;4990954;28;20524;-79
2023/08/18 09:29:36;;;;;;;3.80;1.60;;;;;;;-145.14;100.00;70583.66;4991618;28;20230;-77
2023/08/18 09:32:02;;;;;;;3.37;1.97;;;;;;;-145.14;100.00;70583.66;4992612;28;20472;-79
2023/08/18 09:34:27;;;;;;;3.03;1.80;;;;;;;-145.14;100.00;70583.66;4999987;28;20445;-79
2023/08/18 09:36:54;;;;;;;3.17;1.70;;;;;;;-145.14;100.00;70583.66;4991591;28;21007;-77
2023/08/18 09:39:25;;;;;;;3.60;1.70;;;;;;;-145.14;100.00;70583.66;4992923;28;20598;-77
2023/08/18 09:41:53;;;;;;;4.83;1.47;;;;;;;-145.14;100.00;70583.66;4992693;28;20926;-77
2023/08/18 09:44:20;;;;;;;5.40;2.00;;;;;;;-145.14;100.00;70583.66;4997973;28;20456;-77
2023/08/18 09:46:54;;;;;;;4.47;2.00;;;;;;;-145.14;100.00;70583.66;4991443;28;20473;-77
2023/08/18 09:49:21;;;;;;;3.80;2.13;;;;;;;-145.14;100.00;70583.66;4989729;28;20720;-78
2023/08/18 09:51:51;;;;;;;4.07;1.50;;;;;;;-145.14;100.00;70583.66;4992633;28;21012;-77
2023/08/18 09:54:19;;;;;;;4.47;2.13;;;;;;;-145.14;100.00;70583.66;4992557;28;20420;-78
2023/08/18 09:56:46;;;;;;;4.23;1.47;;;;;;;-145.14;100.00;70583.66;4992977;28;20937;-77
2023/08/18 09:59:30;;;;;;;2.67;1.60;;;;;;;-145.14;100.00;70583.66;4993957;28;20475;-77
2023/08/18 10:01:56;;;;;;;3.10;1.57;;;;;;;-145.14;100.00;70583.66;4990699;28;20435;-77
2023/08/18 10:04:25;;;;;;;4.30;1.60;;;;;;;-145.14;100.00;70583.66;4993390;28;20469;-77
2023/08/18 10:06:55;;;;;;;4.47;1.73;;;;;;;-145.14;100.00;70583.66;4997641;28;20509;-77
2023/08/18 10:09:22;;;;;;;3.83;1.93;;;;;;;-145.14;100.00;70583.66;4990715;28;20476;-77
2023/08/18 10:11:50;;;;;;;4.43;1.57;;;;;;;-145.14;100.00;70583.66;4990304;28;20460;-78
2023/08/18 10:14:18;;;;;;;4.00;1.50;;;;;;;-145.14;100.00;70583.66;4991520;28;21041;-77
2023/08/18 10:16:46;;;;;;;4.10;1.40;;;;;;;-145.14;100.00;70583.66;4991367;28;20441;-77
2023/08/18 10:19:12;;;;;;;2.70;1.50;;;;;;;-145.14;100.00;70583.66;5001132;28;20543;-79
2023/08/18 10:21:38;;;;;;;3.03;1.37;;;;;;;-145.14;100.00;70583.66;4989669;28;20433;-77
2023/08/18 10:24:04;;;;;;;3.77;1.80;;;;;;;-145.14;100.00;70583.66;4994035;28;20442;-80
2023/08/18 10:26:34;;;;;;;5.73;1.93;;;;;;;-145.14;100.00;70583.66;4994667;28;20440;-77
2023/08/18 10:29:17;;;;;;;4.10;2.33;;;;;;;-145.14;100.00;70583.66;4991297;28;20205;-77
2023/08/18 10:31:49;;;;;;;2.43;1.50;;;;;;;-145.14;100.00;70583.66;4990980;28;20469;-77
2023/08/18 10:34:22;;;;;;;4.07;1.87;;;;;;;-145.14;100.00;70583.66;4992023;28;20428;-77
2023/08/18 10:36:58;;;;;;;5.80;1.97;;;;;;;-145.14;100.00;70583.66;4993156;28;20460;-77
2023/08/18 10:39:29;;;;;;;4.07;2.10;;;;;;;-145.14;100.00;70583.66;4995078;28;20976;-77
2023/08/18 10:42:09;;;;;;;4.77;2.63;;;;;;;-145.14;100.00;70583.66;5002564;28;20516;-77
2023/08/18 10:44:34;;;;;;;5.60;3.37;;;;;;;-145.14;100.00;70583.66;4995573;28;20534;-77
2023/08/18 10:47:02;;;;;;;7.53;3.87;;;;;;;-145.14;100.00;70583.66;4997563;28;20905;-77
2023/08/18 10:49:28;;;;;;;6.00;3.13;;;;;;;-145.14;100.00;70583.66;4994193;28;20236;-77
2023/08/18 10:51:54;;;;;;;5.70;3.40;;;;;;;-145.14;100.00;70583.66;5002503;28;20595;-77
2023/08/18 10:54:22;;;;;;;5.20;3.10;;;;;;;-145.14;100.00;70583.66;4994698;28;20863;-77
2023/08/18 10:56:48;;;;;;;4.13;2.57;;;;;;;-145.14;100.00;70583.66;5002232;28;20638;-76
2023/08/18 10:59:13;;;;;;;4.43;2.73;;;;;;;-145.14;100.00;70583.66;4996130;28;20472;-77
2023/08/18 11:01:39;;;;;;;3.97;2.77;;;;;;;-145.14;100.00;70583.66;4995459;28;20188;-77
2023/08/18 11:04:05;;;;;;;4.00;2.20;;;;;;;-145.14;100.00;70583.66;4997718;28;20220;-77
2023/08/18 11:06:30;;;;;;;3.70;2.03;;;;;;;-145.14;100.00;70583.66;4993146;28;20193;-77